Time;durP1;ratioP1;P1;durP2;ratioP2;P2;SDS_P1;SDS_P2;PMS_P1;PMS_P2;Temp;Humidity;BMP_temperature;BMP_pressure;BME280_temperature;BME280_humidity;BME280_pressure;Samples;Min_cycle;Max_cycle;Signal;HPM_P1;HPM_P2
2022/04/16 00:02:02;;;;;;;16.50;9.80;;;;;;;;;;5072346;28;20033;-77
2022/04/16 00:04:29;;;;;;;17.35;9.93;;;;;;;;;;5071550;28;20048;-77
2022/04/16 00:06:55;;;;;;;18.92;10.93;;;;;;;;;;5070868;28;20097;-78
2022/04/16 00:09:22;;;;;;;15.52;9.23;;;;;;;;;;5071510;28;20182;-78
2022/04/16 00:11:48;;;;;;;15.93;9.05;;;;;;;;;;5071229;28;20101;-78
2022/04/16 00:14:15;;;;;;;16.33;10.43;;;;;;;;;;5073184;28;20049;-77
2022/04/16 00:16:42;;;;;;;15.23;9.48;;;;;;;;;;5071820;28;20048;-77
2022/04/16 00:19:08;;;;;;;16.80;10.55;;;;;;;;;;5038069;28;20499;-77
2022/04/16 00:21:35;;;;;;;16.95;9.45;;;;;;;;;;5076953;28;20032;-78
2022/04/16 00:24:01;;;;;;;15.13;9.13;;;;;;;;;;5076474;28;20040;-76
2022/04/16 00:26:28;;;;;;;14.27;9.88;;;;;;;;;;5071468;28;20047;-76
2022/04/16 00:28:54;;;;;;;16.05;9.25;;;;;;;;;;5071701;28;20063;-76
2022/04/16 00:31:21;;;;;;;18.08;10.00;;;;;;;;;;5072316;28;20038;-75
2022/04/16 00:33:47;;;;;;;19.33;10.48;;;;;;;;;;5071943;28;20041;-75
2022/04/16 00:36:16;;;;;;;16.45;9.88;;;;;;;;;;5072152;28;20495;-75
2022/04/16 00:38:43;;;;;;;16.27;9.95;;;;;;;;;;5055646;28;20396;-77
2022/04/16 00:41:09;;;;;;;15.65;10.30;;;;;;;;;;5071404;28;20032;-77
2022/04/16 00:43:35;;;;;;;16.33;10.00;;;;;;;;;;5054840;28;20504;-76
2022/04/16 00:46:01;;;;;;;18.15;10.60;;;;;;;;;;5068660;28;20500;-77
2022/04/16 00:48:27;;;;;;;15.80;10.38;;;;;;;;;;5055208;28;20048;-77
2022/04/16 00:50:54;;;;;;;15.60;10.05;;;;;;;;;;5071758;28;20101;-79
2022/04/16 00:53:21;;;;;;;15.65;10.40;;;;;;;;;;5071542;28;20049;-80
2022/04/16 00:55:48;;;;;;;17.63;9.32;;;;;;;;;;5054546;28;20499;-79
2022/04/16 00:58:14;;;;;;;14.98;10.55;;;;;;;;;;5072669;28;20542;-79
2022/04/16 01:00:40;;;;;;;17.08;10.73;;;;;;;;;;5073048;28;20179;-77
2022/04/16 01:03:07;;;;;;;14.75;10.20;;;;;;;;;;5072518;28;20036;-77
2022/04/16 01:05:33;;;;;;;19.20;12.13;;;;;;;;;;5071028;28;20044;-77
2022/04/16 01:08:04;;;;;;;16.10;10.00;;;;;;;;;;5072098;28;20079;-77
2022/04/16 01:10:31;;;;;;;17.77;11.02;;;;;;;;;;5070973;28;20442;-78
2022/04/16 01:12:58;;;;;;;14.90;9.95;;;;;;;;;;5069187;28;20055;-77
2022/04/16 01:15:24;;;;;;;20.35;11.10;;;;;;;;;;5070705;28;20071;-77
2022/04/16 01:17:51;;;;;;;18.55;9.93;;;;;;;;;;5068538;28;20036;-77
2022/04/16 01:20:18;;;;;;;15.25;9.27;;;;;;;;;;5071118;28;20040;-77
2022/04/16 01:22:48;;;;;;;21.13;12.25;;;;;;;;;;5053972;28;20037;-78
2022/04/16 01:25:14;;;;;;;18.02;12.07;;;;;;;;;;5071141;28;20052;-78
2022/04/16 01:27:43;;;;;;;16.48;11.18;;;;;;;;;;5071674;28;20056;-78
2022/04/16 01:30:11;;;;;;;16.45;11.18;;;;;;;;;;5069505;28;20040;-78
2022/04/16 01:32:37;;;;;;;19.75;10.82;;;;;;;;;;5070668;28;20047;-78
2022/04/16 01:35:05;;;;;;;15.07;9.30;;;;;;;;;;5070473;28;20045;-78
2022/04/16 01:37:34;;;;;;;15.55;9.82;;;;;;;;;;5070882;28;20040;-78
2022/04/16 01:40:04;;;;;;;18.83;10.88;;;;;;;;;;5071552;28;20039;-78
2022/04/16 01:42:32;;;;;;;19.73;11.43;;;;;;;;;;5071079;28;20373;-78
2022/04/16 01:45:00;;;;;;;16.95;10.02;;;;;;;;;;5071050;28;20044;-78
2022/04/16 01:47:27;;;;;;;20.23;12.38;;;;;;;;;;5070651;28;20048;-78
2022/04/16 01:49:53;;;;;;;21.73;11.57;;;;;;;;;;5070872;28;20060;-79
2022/04/16 01:52:21;;;;;;;23.90;13.05;;;;;;;;;;5070247;28;20059;-79
2022/04/16 01:54:48;;;;;;;17.65;11.13;;;;;;;;;;5070282;28;20051;-78
2022/04/16 01:57:18;;;;;;;18.30;10.05;;;;;;;;;;5070153;28;20032;-78
2022/04/16 01:59:44;;;;;;;18.23;10.98;;;;;;;;;;5053576;28;20040;-78
2022/04/16 02:02:11;;;;;;;17.85;12.25;;;;;;;;;;5065917;28;20500;-78
2022/04/16 02:04:37;;;;;;;22.90;12.07;;;;;;;;;;5069615;28;20255;-78
2022/04/16 02:07:03;;;;;;;21.02;13.73;;;;;;;;;;5051815;28;20047;-78
2022/04/16 02:09:29;;;;;;;16.27;10.40;;;;;;;;;;5069542;28;20049;-77
2022/04/16 02:11:55;;;;;;;18.77;11.57;;;;;;;;;;5053069;28;20068;-77
2022/04/16 02:14:21;;;;;;;20.48;12.20;;;;;;;;;;5071463;28;20046;-77
2022/04/16 02:16:48;;;;;;;17.52;10.30;;;;;;;;;;5053715;28;20071;-77
2022/04/16 02:19:14;;;;;;;17.08;10.45;;;;;;;;;;5070055;28;20033;-78
2022/04/16 02:21:42;;;;;;;22.48;13.15;;;;;;;;;;5070450;28;20048;-77
2022/04/16 02:24:08;;;;;;;21.38;13.38;;;;;;;;;;5070106;28;20117;-77
2022/04/16 02:26:34;;;;;;;24.55;14.85;;;;;;;;;;5069803;28;20510;-77
2022/04/16 02:29:00;;;;;;;25.35;14.23;;;;;;;;;;5052897;28;20385;-77
2022/04/16 02:31:26;;;;;;;23.90;14.25;;;;;;;;;;5053212;28;20389;-77
2022/04/16 02:33:55;;;;;;;25.58;14.60;;;;;;;;;;5051703;28;20059;-77
2022/04/16 02:36:25;;;;;;;26.42;15.95;;;;;;;;;;5068371;28;20044;-77
2022/04/16 02:38:56;;;;;;;24.85;14.95;;;;;;;;;;5068459;28;20029;-78
2022/04/16 02:41:22;;;;;;;24.55;14.60;;;;;;;;;;5068202;28;20055;-77
2022/04/16 02:43:48;;;;;;;22.20;14.27;;;;;;;;;;5069439;28;20046;-78
2022/04/16 02:49:00;;;;;;;26.98;14.73;;;;;;;;;;5070341;28;20041;-78
2022/04/16 02:51:26;;;;;;;29.20;15.82;;;;;;;;;;5069444;28;20140;-78
2022/04/16 02:53:52;;;;;;;25.58;14.65;;;;;;;;;;5068904;28;20130;-78
2022/04/16 02:56:18;;;;;;;23.70;14.70;;;;;;;;;;5071433;28;20043;-77
2022/04/16 02:58:44;;;;;;;22.88;14.00;;;;;;;;;;5070388;28;20047;-77
2022/04/16 03:01:10;;;;;;;21.60;13.38;;;;;;;;;;5069250;28;20032;-78
2022/04/16 03:03:37;;;;;;;22.25;14.27;;;;;;;;;;5067715;28;20052;-77
2022/04/16 03:06:03;;;;;;;28.40;16.80;;;;;;;;;;5069282;28;20036;-78
2022/04/16 03:08:29;;;;;;;27.38;15.90;;;;;;;;;;5069949;28;20039;-77
2022/04/16 03:10:55;;;;;;;26.75;16.13;;;;;;;;;;5068551;28;20119;-77
2022/04/16 03:13:22;;;;;;;30.48;18.02;;;;;;;;;;5070405;28;20388;-78
2022/04/16 03:18:32;;;;;;;31.50;16.30;;;;;;;;;;5070243;28;20579;-78
2022/04/16 03:20:59;;;;;;;29.75;16.40;;;;;;;;;;5053147;28;20032;-78
2022/04/16 03:23:25;;;;;;;34.35;18.98;;;;;;;;;;5069243;28;20044;-78
2022/04/16 03:25:53;;;;;;;27.75;16.40;;;;;;;;;;5069472;28;20052;-79
2022/04/16 03:28:20;;;;;;;34.78;18.55;;;;;;;;;;5069501;28;20044;-77
2022/04/16 03:30:46;;;;;;;32.83;17.75;;;;;;;;;;5068623;28;20044;-78
2022/04/16 03:33:12;;;;;;;31.45;18.63;;;;;;;;;;5068616;28;20049;-78
2022/04/16 03:35:39;;;;;;;29.50;18.55;;;;;;;;;;5069046;28;20040;-79
2022/04/16 03:38:05;;;;;;;39.67;20.42;;;;;;;;;;5068442;28;20047;-78
2022/04/16 03:40:31;;;;;;;32.25;18.02;;;;;;;;;;5068896;28;20036;-79
2022/04/16 03:42:58;;;;;;;36.90;20.17;;;;;;;;;;5069842;28;20499;-77
2022/04/16 03:45:27;;;;;;;34.67;18.75;;;;;;;;;;5069377;28;20086;-76
2022/04/16 03:47:56;;;;;;;29.92;18.05;;;;;;;;;;5065975;28;20068;-77
2022/04/16 03:50:25;;;;;;;30.10;17.70;;;;;;;;;;5051660;28;20098;-77
2022/04/16 03:52:52;;;;;;;30.90;17.70;;;;;;;;;;5070456;28;20047;-78
2022/04/16 04:00:49;;;;;;;31.10;18.67;;;;;;;;;;5068846;28;20560;-78
2022/04/16 04:03:15;;;;;;;36.85;20.40;;;;;;;;;;5071100;28;20399;-79
2022/04/16 04:05:42;;;;;;;32.35;17.73;;;;;;;;;;5071695;28;20036;-77
2022/04/16 04:08:09;;;;;;;33.53;18.95;;;;;;;;;;5072710;28;20525;-78
2022/04/16 04:10:35;;;;;;;32.25;18.05;;;;;;;;;;5071687;28;20040;-76
2022/04/16 04:13:02;;;;;;;35.30;19.63;;;;;;;;;;5072119;28;20028;-75
2022/04/16 04:15:29;;;;;;;31.40;18.25;;;;;;;;;;5073006;28;20036;-75
2022/04/16 04:17:59;;;;;;;35.25;19.98;;;;;;;;;;5071477;28;20041;-76
2022/04/16 04:20:25;;;;;;;39.50;20.90;;;;;;;;;;5072252;28;20047;-76
2022/04/16 04:22:51;;;;;;;38.17;20.88;;;;;;;;;;5071405;28;20411;-78
2022/04/16 04:25:17;;;;;;;34.92;19.63;;;;;;;;;;5071318;28;20472;-76
2022/04/16 04:27:44;;;;;;;40.35;21.58;;;;;;;;;;5070712;28;20082;-75
2022/04/16 04:30:10;;;;;;;44.25;22.73;;;;;;;;;;5068813;28;20090;-77
2022/04/16 04:32:36;;;;;;;38.40;20.90;;;;;;;;;;5054664;28;20052;-76
2022/04/16 04:35:03;;;;;;;39.50;21.17;;;;;;;;;;5070740;28;20407;-76
2022/04/16 04:37:29;;;;;;;36.17;20.58;;;;;;;;;;5070864;28;20048;-76
2022/04/16 04:39:55;;;;;;;39.80;22.10;;;;;;;;;;5070587;28;20265;-75
2022/04/16 04:42:24;;;;;;;36.95;20.23;;;;;;;;;;5070973;28;20036;-76
2022/04/16 04:44:51;;;;;;;39.50;21.65;;;;;;;;;;5072148;28;20115;-77
2022/04/16 04:47:17;;;;;;;45.38;21.95;;;;;;;;;;5072178;28;20560;-75
2022/04/16 04:49:43;;;;;;;38.70;18.90;;;;;;;;;;5070447;28;20075;-75
2022/04/16 04:52:09;;;;;;;43.47;22.50;;;;;;;;;;5071151;28;20075;-75
2022/04/16 04:54:35;;;;;;;42.13;22.13;;;;;;;;;;5071052;28;20040;-75
2022/04/16 04:57:03;;;;;;;34.90;17.52;;;;;;;;;;5071250;28;20388;-81
2022/04/16 04:59:29;;;;;;;43.03;22.13;;;;;;;;;;5054789;28;20480;-76
2022/04/16 05:01:55;;;;;;;39.15;19.48;;;;;;;;;;5070398;28;20122;-81
2022/04/16 05:04:22;;;;;;;36.65;20.73;;;;;;;;;;5069897;28;20446;-75
2022/04/16 05:06:48;;;;;;;33.30;16.63;;;;;;;;;;5070677;28;20418;-73
2022/04/16 05:09:14;;;;;;;33.42;17.35;;;;;;;;;;5071566;28;20115;-73
2022/04/16 05:11:40;;;;;;;38.70;19.33;;;;;;;;;;5070312;28;20040;-75
2022/04/16 05:14:06;;;;;;;42.80;21.25;;;;;;;;;;5071420;28;20512;-73
2022/04/16 05:16:32;;;;;;;35.05;16.70;;;;;;;;;;5070576;28;20518;-73
2022/04/16 05:18:58;;;;;;;43.45;22.38;;;;;;;;;;5070269;28;20437;-73
2022/04/16 05:21:24;;;;;;;39.63;21.10;;;;;;;;;;5070168;28;20511;-73
2022/04/16 05:23:50;;;;;;;36.50;20.50;;;;;;;;;;5070006;28;20053;-74
2022/04/16 05:26:16;;;;;;;30.20;14.75;;;;;;;;;;5071614;28;20169;-73
2022/04/16 05:28:42;;;;;;;30.88;15.52;;;;;;;;;;5037525;28;20094;-74
2022/04/16 05:31:08;;;;;;;39.03;21.15;;;;;;;;;;5070096;28;20101;-73
2022/04/16 05:36:19;;;;;;;30.85;15.45;;;;;;;;;;5071014;28;20384;-73
2022/04/16 05:38:45;;;;;;;37.33;20.27;;;;;;;;;;5054534;28;20037;-73
2022/04/16 05:41:11;;;;;;;33.45;17.73;;;;;;;;;;5072525;28;20510;-73
2022/04/16 05:43:38;;;;;;;23.25;10.40;;;;;;;;;;5070977;28;20036;-74
2022/04/16 05:46:04;;;;;;;32.83;18.25;;;;;;;;;;5072124;28;20033;-75
2022/04/16 05:48:30;;;;;;;29.98;14.90;;;;;;;;;;5071438;28;20369;-73
2022/04/16 05:50:57;;;;;;;32.35;17.98;;;;;;;;;;5072533;28;20466;-73
2022/04/16 05:53:24;;;;;;;32.20;18.20;;;;;;;;;;5053623;28;20049;-75
2022/04/16 05:55:53;;;;;;;28.83;14.77;;;;;;;;;;5070253;28;20029;-73
2022/04/16 05:58:19;;;;;;;26.30;15.52;;;;;;;;;;5070486;28;20392;-73
2022/04/16 06:00:45;;;;;;;30.17;17.08;;;;;;;;;;5071437;28;20041;-75
2022/04/16 06:03:12;;;;;;;27.85;14.68;;;;;;;;;;5053838;28;20036;-76
2022/04/16 06:05:38;;;;;;;29.73;17.27;;;;;;;;;;5070795;28;20036;-73
2022/04/16 06:08:04;;;;;;;27.17;16.08;;;;;;;;;;5070655;28;20496;-73
2022/04/16 06:10:30;;;;;;;26.67;15.13;;;;;;;;;;5071497;28;20078;-72
2022/04/16 06:12:56;;;;;;;27.30;15.23;;;;;;;;;;5070663;28;20442;-77
2022/04/16 06:15:22;;;;;;;23.77;13.20;;;;;;;;;;5068897;28;20387;-80
2022/04/16 06:17:48;;;;;;;20.52;10.70;;;;;;;;;;5070310;28;20365;-80
2022/04/16 06:20:14;;;;;;;22.88;12.63;;;;;;;;;;5068957;28;20039;-77
2022/04/16 06:22:41;;;;;;;22.50;13.25;;;;;;;;;;5069459;28;20042;-76
2022/04/16 06:25:10;;;;;;;22.60;11.68;;;;;;;;;;5069055;28;20472;-78
2022/04/16 06:27:39;;;;;;;23.00;14.60;;;;;;;;;;5069493;28;20363;-75
2022/04/16 06:30:08;;;;;;;22.45;12.40;;;;;;;;;;5051894;28;20068;-73
2022/04/16 06:32:34;;;;;;;21.90;13.15;;;;;;;;;;5069858;28;20391;-73
2022/04/16 06:35:01;;;;;;;19.70;12.98;;;;;;;;;;5070455;28;20052;-72
2022/04/16 06:37:27;;;;;;;19.77;12.52;;;;;;;;;;5069457;28;20036;-73
2022/04/16 06:39:53;;;;;;;22.63;13.90;;;;;;;;;;5070097;28;20036;-73
2022/04/16 06:42:20;;;;;;;20.25;12.48;;;;;;;;;;5071130;28;20079;-73
2022/04/16 06:44:46;;;;;;;18.00;12.15;;;;;;;;;;5053872;28;20044;-75
2022/04/16 06:47:12;;;;;;;23.02;12.63;;;;;;;;;;5069686;28;20054;-76
2022/04/16 06:49:38;;;;;;;18.30;11.77;;;;;;;;;;5071044;28;20057;-75
2022/04/16 06:52:04;;;;;;;17.98;11.45;;;;;;;;;;5069800;28;20491;-75
2022/04/16 06:54:30;;;;;;;16.80;10.32;;;;;;;;;;5070389;28;20044;-72
2022/04/16 06:56:56;;;;;;;16.90;11.20;;;;;;;;;;5070363;28;20040;-74
2022/04/16 06:59:22;;;;;;;17.58;11.45;;;;;;;;;;5068864;28;20057;-77
2022/04/16 07:01:48;;;;;;;17.77;10.45;;;;;;;;;;5069879;28;20035;-73
2022/04/16 07:04:14;;;;;;;17.42;11.18;;;;;;;;;;5068706;28;20040;-73
2022/04/16 07:06:42;;;;;;;17.42;10.93;;;;;;;;;;5069879;28;20040;-73
2022/04/16 07:09:10;;;;;;;16.75;11.25;;;;;;;;;;5068135;28;20063;-73
2022/04/16 07:11:36;;;;;;;17.15;10.73;;;;;;;;;;5068436;28;20047;-73
2022/04/16 07:14:02;;;;;;;16.05;10.63;;;;;;;;;;5068092;28;20044;-73
2022/04/16 07:16:28;;;;;;;15.48;10.88;;;;;;;;;;5068568;28;20041;-73
2022/04/16 07:18:54;;;;;;;16.73;10.40;;;;;;;;;;5069936;28;20039;-75
2022/04/16 07:21:20;;;;;;;13.52;8.98;;;;;;;;;;5068296;28;20076;-73
2022/04/16 07:23:46;;;;;;;15.40;10.15;;;;;;;;;;5068600;28;20470;-73
2022/04/16 07:26:12;;;;;;;13.95;9.75;;;;;;;;;;5068464;28;20450;-73
2022/04/16 07:28:38;;;;;;;14.90;10.48;;;;;;;;;;5072579;28;20047;-73
2022/04/16 07:31:04;;;;;;;14.73;10.00;;;;;;;;;;5055311;28;20040;-72
2022/04/16 07:33:32;;;;;;;15.88;10.02;;;;;;;;;;5055763;28;20545;-72
2022/04/16 07:35:58;;;;;;;14.60;9.68;;;;;;;;;;5055296;28;20066;-73
2022/04/16 07:38:24;;;;;;;14.95;9.73;;;;;;;;;;5055828;28;20083;-72
2022/04/16 07:40:50;;;;;;;16.70;10.65;;;;;;;;;;5071688;28;20033;-74
2022/04/16 07:43:16;;;;;;;15.38;9.75;;;;;;;;;;5071481;28;20042;-74
2022/04/16 07:45:42;;;;;;;15.52;10.07;;;;;;;;;;5073075;28;20055;-73
2022/04/16 07:48:09;;;;;;;15.55;10.40;;;;;;;;;;5071846;28;20457;-78
2022/04/16 07:50:35;;;;;;;15.63;9.57;;;;;;;;;;5069242;28;20060;-73
2022/04/16 07:53:02;;;;;;;16.52;9.95;;;;;;;;;;5071881;28;20041;-74
2022/04/16 07:55:31;;;;;;;14.63;9.38;;;;;;;;;;5071433;28;20129;-73
2022/04/16 07:57:57;;;;;;;16.13;9.77;;;;;;;;;;5072818;28;20083;-73
2022/04/16 08:00:23;;;;;;;14.65;9.55;;;;;;;;;;5071975;28;20495;-74
2022/04/16 08:02:50;;;;;;;13.13;9.25;;;;;;;;;;5072979;28;20400;-73
2022/04/16 08:05:16;;;;;;;15.32;9.88;;;;;;;;;;5071690;28;20476;-73
2022/04/16 08:07:42;;;;;;;12.95;9.35;;;;;;;;;;5073123;28;20040;-75
2022/04/16 08:10:08;;;;;;;16.20;9.00;;;;;;;;;;5071519;28;20037;-73
2022/04/16 08:12:35;;;;;;;12.52;9.40;;;;;;;;;;5071648;28;20037;-73
2022/04/16 08:15:01;;;;;;;13.93;9.30;;;;;;;;;;5071307;28;20040;-73
2022/04/16 08:17:27;;;;;;;12.50;9.30;;;;;;;;;;5071549;28;20037;-72
2022/04/16 08:19:53;;;;;;;14.00;9.50;;;;;;;;;;5071349;28;20647;-73
2022/04/16 08:22:21;;;;;;;12.27;8.57;;;;;;;;;;5071421;28;20553;-73
2022/04/16 08:25:43;;;;;;;13.70;9.57;;;;;;;;;;5054968;28;20040;-73
2022/04/16 08:27:42;;;;;;;13.27;9.40;;;;;;;;;;5071127;28;20131;-73
2022/04/16 08:30:10;;;;;;;14.32;9.30;;;;;;;;;;5071243;28;20115;-73
2022/04/16 08:32:36;;;;;;;14.73;9.75;;;;;;;;;;5070887;28;20041;-83
2022/04/16 08:35:03;;;;;;;13.85;9.57;;;;;;;;;;5070475;28;20044;-75
2022/04/16 08:37:29;;;;;;;15.43;9.55;;;;;;;;;;5070384;28;20041;-80
2022/04/16 08:39:55;;;;;;;14.32;9.38;;;;;;;;;;5069838;28;20044;-77
2022/04/16 08:42:22;;;;;;;14.45;9.02;;;;;;;;;;5070494;28;20067;-80
2022/04/16 08:44:48;;;;;;;12.30;8.77;;;;;;;;;;5071945;28;20127;-78
2022/04/16 08:47:15;;;;;;;13.30;9.07;;;;;;;;;;5070104;28;20040;-81
2022/04/16 08:49:42;;;;;;;12.45;8.63;;;;;;;;;;5070367;28;20052;-83
2022/04/16 08:52:09;;;;;;;12.52;9.10;;;;;;;;;;5070559;28;20102;-77
2022/04/16 08:54:36;;;;;;;12.35;8.70;;;;;;;;;;5071741;28;20131;-76
2022/04/16 08:57:02;;;;;;;14.20;8.50;;;;;;;;;;5070163;28;20052;-82
2022/04/16 08:59:28;;;;;;;11.80;7.70;;;;;;;;;;5069940;28;20046;-77
2022/04/16 09:01:55;;;;;;;10.88;7.85;;;;;;;;;;5053364;28;20037;-83
2022/04/16 09:04:21;;;;;;;10.98;7.43;;;;;;;;;;5070018;28;20043;-83
2022/04/16 09:07:00;;;;;;;11.15;7.22;;;;;;;;;;5070199;28;20036;-80
2022/04/16 09:09:27;;;;;;;10.40;7.60;;;;;;;;;;5070359;28;20063;-81
2022/04/16 09:11:54;;;;;;;10.85;8.25;;;;;;;;;;5070245;28;20042;-78
2022/04/16 09:14:20;;;;;;;10.57;6.72;;;;;;;;;;5071218;28;20040;-82
2022/04/16 09:16:46;;;;;;;12.13;8.07;;;;;;;;;;5070159;28;20503;-77
2022/04/16 09:19:17;;;;;;;11.80;8.02;;;;;;;;;;5069944;28;20033;-82
2022/04/16 09:21:43;;;;;;;9.40;6.82;;;;;;;;;;5071102;28;20108;-80
2022/04/16 09:24:12;;;;;;;10.35;7.10;;;;;;;;;;5053147;28;20121;-80
2022/04/16 09:26:39;;;;;;;8.75;6.03;;;;;;;;;;5069990;28;20052;-76
2022/04/16 09:29:12;;;;;;;9.65;6.97;;;;;;;;;;5069785;28;20037;-80
2022/04/16 09:31:40;;;;;;;9.18;6.97;;;;;;;;;;5070698;28;20040;-74
2022/04/16 09:34:07;;;;;;;9.20;6.00;;;;;;;;;;5069043;28;20045;-80
2022/04/16 09:36:38;;;;;;;8.70;5.95;;;;;;;;;;5069422;28;20036;-78
2022/04/16 09:39:05;;;;;;;7.78;5.43;;;;;;;;;;5069628;28;20037;-81
2022/04/16 09:41:32;;;;;;;8.25;5.43;;;;;;;;;;5069549;28;20063;-82
2022/04/16 09:43:59;;;;;;;7.85;5.45;;;;;;;;;;5070762;28;20040;-80
2022/04/16 09:46:27;;;;;;;9.20;6.32;;;;;;;;;;5069476;28;20079;-77
2022/04/16 09:48:57;;;;;;;7.50;5.57;;;;;;;;;;5069034;28;20052;-79
2022/04/16 09:51:24;;;;;;;8.13;5.53;;;;;;;;;;5069961;28;20056;-82
2022/04/16 09:53:52;;;;;;;7.07;4.50;;;;;;;;;;5069232;28;20048;-76
2022/04/16 09:56:19;;;;;;;7.57;5.07;;;;;;;;;;5069143;28;20037;-80
2022/04/16 09:58:48;;;;;;;6.50;4.70;;;;;;;;;;5070478;28;20037;-79
2022/04/16 10:01:16;;;;;;;5.80;3.78;;;;;;;;;;5068914;28;20089;-76
2022/04/16 10:03:43;;;;;;;6.70;3.90;;;;;;;;;;5070422;28;20051;-82
2022/04/16 10:06:10;;;;;;;5.80;4.05;;;;;;;;;;5068903;28;20128;-81
2022/04/16 10:08:36;;;;;;;5.82;3.75;;;;;;;;;;5068878;28;20076;-77
2022/04/16 10:11:05;;;;;;;5.43;3.53;;;;;;;;;;5068731;28;20040;-80
2022/04/16 10:13:35;;;;;;;6.22;3.80;;;;;;;;;;5052255;28;20173;-75
2022/04/16 10:16:08;;;;;;;6.30;3.83;;;;;;;;;;5068878;28;20175;-77
2022/04/16 10:18:35;;;;;;;5.47;3.53;;;;;;;;;;5068743;28;20060;-75
2022/04/16 10:21:02;;;;;;;4.80;3.30;;;;;;;;;;5068611;28;20077;-79
2022/04/16 10:23:28;;;;;;;5.78;3.35;;;;;;;;;;5052090;28;20051;-76
2022/04/16 10:26:04;;;;;;;5.68;3.03;;;;;;;;;;5068900;28;20384;-82
2022/04/16 10:28:38;;;;;;;4.88;3.00;;;;;;;;;;5050093;28;20032;-78
2022/04/16 10:31:05;;;;;;;4.25;2.70;;;;;;;;;;5070065;28;20047;-77
2022/04/16 10:33:32;;;;;;;3.75;2.60;;;;;;;;;;5069041;28;20566;-80
2022/04/16 10:35:59;;;;;;;4.30;2.72;;;;;;;;;;5051799;28;20466;-75
2022/04/16 10:38:26;;;;;;;4.68;2.50;;;;;;;;;;5069986;28;20036;-81
2022/04/16 10:40:57;;;;;;;3.58;1.83;;;;;;;;;;5052015;28;20040;-79
2022/04/16 10:43:33;;;;;;;3.50;2.10;;;;;;;;;;5069879;28;20040;-79
2022/04/16 10:46:04;;;;;;;4.30;2.22;;;;;;;;;;5068761;28;20033;-81
2022/04/16 10:48:41;;;;;;;3.15;1.95;;;;;;;;;;5051598;28;20044;-78
2022/04/16 10:51:07;;;;;;;5.13;2.22;;;;;;;;;;5067844;28;20181;-78
2022/04/16 10:53:34;;;;;;;5.82;1.92;;;;;;;;;;5068362;28;20086;-76
2022/04/16 10:56:13;;;;;;;3.80;2.20;;;;;;;;;;5069949;28;20044;-76
2022/04/16 10:58:43;;;;;;;3.85;1.90;;;;;;;;;;5051816;28;20060;-77
2022/04/16 11:01:12;;;;;;;4.53;1.80;;;;;;;;;;5067622;28;20147;-81
2022/04/16 11:03:46;;;;;;;3.38;1.92;;;;;;;;;;5068615;28;20123;-80
2022/04/16 11:06:12;;;;;;;3.40;2.10;;;;;;;;;;5068115;28;20041;-79
2022/04/16 11:08:39;;;;;;;3.88;2.20;;;;;;;;;;5068319;28;20049;-75
2022/04/16 11:11:05;;;;;;;5.88;2.20;;;;;;;;;;5069478;28;20036;-76
2022/04/16 11:13:32;;;;;;;4.20;2.30;;;;;;;;;;5068336;28;20123;-81
2022/04/16 11:15:59;;;;;;;3.53;2.30;;;;;;;;;;5051351;28;20048;-80
2022/04/16 11:18:26;;;;;;;3.45;2.20;;;;;;;;;;5067503;28;20158;-75
2022/04/16 11:20:56;;;;;;;4.20;2.22;;;;;;;;;;5069563;28;20047;-81
2022/04/16 11:23:28;;;;;;;3.53;1.63;;;;;;;;;;5069142;28;20399;-77
2022/04/16 11:34:20;;;;;;;1.90;1.08;;;;;;;;;;5053820;28;20505;-79
2022/04/16 11:36:50;;;;;;;2.58;1.27;;;;;;;;;;5068073;28;20037;-80
2022/04/16 11:39:23;;;;;;;3.75;1.42;;;;;;;;;;5068100;28;20089;-81
2022/04/16 11:41:51;;;;;;;1.98;1.10;;;;;;;;;;5066068;28;20079;-78
2022/04/16 11:44:17;;;;;;;2.67;1.23;;;;;;;;;;5068487;28;20090;-78
2022/04/16 11:46:44;;;;;;;2.70;1.50;;;;;;;;;;5068085;28;20051;-76
2022/04/16 11:49:11;;;;;;;2.90;1.13;;;;;;;;;;5067943;28;20495;-77
2022/04/16 11:51:38;;;;;;;2.42;1.20;;;;;;;;;;5051552;28;20060;-80
2022/04/16 11:54:05;;;;;;;2.88;1.40;;;;;;;;;;5067569;28;20113;-80
2022/04/16 11:56:32;;;;;;;3.30;1.63;;;;;;;;;;5068073;28;20490;-78
2022/04/16 11:58:58;;;;;;;2.30;1.40;;;;;;;;;;5067632;28;20041;-79
2022/04/16 12:01:24;;;;;;;1.85;1.15;;;;;;;;;;5050805;28;20044;-78
2022/04/16 12:03:56;;;;;;;3.10;1.42;;;;;;;;;;5050767;28;20080;-74
2022/04/16 12:06:23;;;;;;;4.32;1.30;;;;;;;;;;5067501;28;20101;-76
2022/04/16 12:08:50;;;;;;;2.88;1.35;;;;;;;;;;5067217;28;20045;-74
2022/04/16 12:11:20;;;;;;;2.80;1.48;;;;;;;;;;5067783;28;20041;-78
2022/04/16 12:13:46;;;;;;;2.60;1.25;;;;;;;;;;5070079;28;20058;-77
2022/04/16 12:16:13;;;;;;;2.83;1.30;;;;;;;;;;5071148;28;20510;-75
2022/04/16 12:18:40;;;;;;;2.00;1.00;;;;;;;;;;5072470;28;20047;-78
2022/04/16 12:21:16;;;;;;;3.00;1.27;;;;;;;;;;5071192;28;20515;-76
2022/04/16 12:23:44;;;;;;;3.40;1.15;;;;;;;;;;5070850;28;20106;-78
2022/04/16 12:26:14;;;;;;;2.92;1.20;;;;;;;;;;5072460;28;20075;-79
2022/04/16 12:28:51;;;;;;;1.42;0.80;;;;;;;;;;5072361;28;20048;-80
2022/04/16 12:31:27;;;;;;;3.85;1.17;;;;;;;;;;5070943;28;20097;-80
2022/04/16 12:33:53;;;;;;;3.38;1.27;;;;;;;;;;5070431;28;20037;-77
2022/04/16 12:36:19;;;;;;;3.47;1.23;;;;;;;;;;5071910;28;20426;-78
2022/04/16 12:38:45;;;;;;;2.45;1.10;;;;;;;;;;5054380;28;20509;-76
2022/04/16 12:41:11;;;;;;;2.35;1.13;;;;;;;;;;5070454;28;20036;-81
2022/04/16 12:43:38;;;;;;;3.05;1.25;;;;;;;;;;5054068;28;20036;-80
2022/04/16 12:46:04;;;;;;;3.90;1.40;;;;;;;;;;5070349;28;20094;-79
2022/04/16 12:48:30;;;;;;;4.00;1.60;;;;;;;;;;5070633;28;20041;-81
2022/04/16 12:50:57;;;;;;;2.30;1.30;;;;;;;;;;5070433;28;20489;-75
2022/04/16 12:53:24;;;;;;;4.20;1.30;;;;;;;;;;5070047;28;20044;-80
2022/04/16 12:55:50;;;;;;;2.67;1.20;;;;;;;;;;5070931;28;20388;-78
2022/04/16 12:58:16;;;;;;;2.47;1.50;;;;;;;;;;5071595;28;20037;-80
2022/04/16 13:00:45;;;;;;;4.43;1.38;;;;;;;;;;5070433;28;20091;-79
2022/04/16 13:03:12;;;;;;;2.92;1.40;;;;;;;;;;5071460;28;20036;-72
2022/04/16 13:05:39;;;;;;;4.75;1.20;;;;;;;;;;5070568;28;20400;-73
2022/04/16 13:08:05;;;;;;;2.30;1.20;;;;;;;;;;5070103;28;20036;-73
2022/04/16 13:10:31;;;;;;;2.50;1.65;;;;;;;;;;5070386;28;20458;-76
2022/04/16 13:12:59;;;;;;;2.60;1.42;;;;;;;;;;5070270;28;20127;-81
2022/04/16 13:15:25;;;;;;;3.65;1.15;;;;;;;;;;5069835;28;20536;-82
2022/04/16 13:17:51;;;;;;;1.73;1.00;;;;;;;;;;5070075;28;20137;-75
2022/04/16 13:20:17;;;;;;;2.47;1.17;;;;;;;;;;5069453;28;20036;-80
2022/04/16 13:22:43;;;;;;;3.28;1.30;;;;;;;;;;5071664;28;20028;-75
2022/04/16 13:25:09;;;;;;;2.38;1.30;;;;;;;;;;5070220;28;20048;-80
2022/04/16 13:27:36;;;;;;;2.67;1.08;;;;;;;;;;5053284;28;20072;-77
2022/04/16 13:30:02;;;;;;;6.65;1.38;;;;;;;;;;5069460;28;20044;-80
2022/04/16 13:32:28;;;;;;;3.08;1.35;;;;;;;;;;5069908;28;20094;-81
2022/04/16 13:34:54;;;;;;;2.67;1.55;;;;;;;;;;5053001;28;20476;-78
2022/04/16 13:37:20;;;;;;;4.15;1.27;;;;;;;;;;5070671;28;20567;-75
2022/04/16 13:42:32;;;;;;;3.33;1.20;;;;;;;;;;5069221;28;20302;-83
2022/04/16 13:44:58;;;;;;;2.42;1.13;;;;;;;;;;5052901;28;20040;-77
2022/04/16 13:47:25;;;;;;;2.10;1.20;;;;;;;;;;5069264;28;20085;-80
2022/04/16 13:49:51;;;;;;;2.85;1.13;;;;;;;;;;5069245;28;20149;-79
2022/04/16 13:52:17;;;;;;;3.13;1.10;;;;;;;;;;5070017;28;20510;-75
2022/04/16 13:54:43;;;;;;;2.75;1.20;;;;;;;;;;5069306;28;20440;-77
2022/04/16 13:57:09;;;;;;;1.92;1.08;;;;;;;;;;5069228;28;20047;-78
2022/04/16 13:59:36;;;;;;;2.60;1.10;;;;;;;;;;5052898;28;20094;-77
2022/04/16 14:02:03;;;;;;;3.42;1.10;;;;;;;;;;5052706;28;20040;-75
2022/04/16 14:05:42;;;;;;;3.92;1.50;;;;;;;;;;5069318;28;20079;-72
2022/04/16 14:07:15;;;;;;;4.15;1.30;;;;;;;;;;5067069;28;20079;-71
2022/04/16 14:09:41;;;;;;;3.70;1.55;;;;;;;;;;5070344;28;20032;-73
2022/04/16 14:12:08;;;;;;;2.28;1.42;;;;;;;;;;5068902;28;20033;-73
2022/04/16 14:14:34;;;;;;;3.00;1.30;;;;;;;;;;5070326;28;20049;-73
2022/04/16 14:17:00;;;;;;;2.10;1.10;;;;;;;;;;5068959;28;20082;-72
2022/04/16 14:19:26;;;;;;;2.63;1.42;;;;;;;;;;5068665;28;20068;-74
2022/04/16 14:21:54;;;;;;;3.33;1.52;;;;;;;;;;5069762;28;20036;-74
2022/04/16 14:24:23;;;;;;;3.85;1.60;;;;;;;;;;5068818;28;20120;-72
2022/04/16 14:26:49;;;;;;;3.15;1.40;;;;;;;;;;5070267;28;20047;-72
2022/04/16 14:29:17;;;;;;;4.25;1.65;;;;;;;;;;5068704;28;20557;-73
2022/04/16 14:31:44;;;;;;;3.13;1.20;;;;;;;;;;5068960;28;20492;-73
2022/04/16 14:34:10;;;;;;;3.35;1.30;;;;;;;;;;5068502;28;20225;-74
2022/04/16 14:36:37;;;;;;;5.25;1.48;;;;;;;;;;5067991;28;20036;-72
2022/04/16 14:39:03;;;;;;;4.30;1.48;;;;;;;;;;5068949;28;20036;-72
2022/04/16 14:41:29;;;;;;;3.00;1.50;;;;;;;;;;5069519;28;20033;-80
2022/04/16 14:43:58;;;;;;;6.10;1.80;;;;;;;;;;5069884;28;20044;-78
2022/04/16 14:46:25;;;;;;;3.35;1.65;;;;;;;;;;5069726;28;20485;-81
2022/04/16 14:48:55;;;;;;;3.13;1.50;;;;;;;;;;5068719;28;20093;-82
2022/04/16 14:51:23;;;;;;;3.75;1.60;;;;;;;;;;5068094;28;20806;-79
2022/04/16 14:53:49;;;;;;;3.53;1.50;;;;;;;;;;5068256;28;20399;-81